KFCS/FCS METAR and TAF weather

Enter ICAO airport designator
Station Type Date Time Source
KFCS METAR 2019/02/17 15:58 UTC NOAA

KFCS 171558Z AUTO 11003KT 10SM CLR M02/M18 A2980 RMK AO2 SLP150 T10211178


Station Type Date Time Source
KFCS Decoded METAR 2019/02/17 15:58 UTC NOAA

Fort Carson, CO, United States (KFCS) 38-42N 104-46W 1789M
Feb 17, 2019 - 10:58 AM EST / 2019.02.17 1558 UTC
Wind: from the ESE (110 degrees) at 3 MPH (3 KT):0
Visibility: 10 mile(s):0
Sky conditions: clear
Temperature: 28.2 F (-2.1 C)
Dew Point: -0.0 F (-17.8 C)
Relative Humidity: 28%
Pressure (altimeter): 29.8 in. Hg (1009 hPa)
ob: KFCS 171558Z AUTO 11003KT 10SM CLR M02/M18 A2980 RMK AO2 SLP150 T10211178
cycle: 16

Station Type Date Time Source
KFCS TAF 2019/02/17 13:11 UTC NOAA

TAF KFCS 171300Z 1713/1819 VRB06KT 9999 SCT120 QNH2966INS
BECMG 1717/1718 13012G20KT 9999 SCT120 QNH2968INS
BECMG 1723/1724 01015G25KT 9999 BKN060 QNH2971INS
BECMG 1805/1806 VRB06KT 8000 -SN BKN020 620209 QNH2980INS
BECMG 1809/1810 VRB06KT 3200 -SN BKN020 620209 QNH2985INS TX03/1721Z TNM09/1714Z


Example: see airport list